CheckWX is a tool to help pilots better visualize weather data.  It is not intended as a substitute for an official pre-flight weather briefing.

23:11:05 UTC

KEND METAR
Vance AFB Airport
Enid, Oklahoma, USA
Current

1 hour ago

KEND 242156Z AUTO 17015KT 10SM DZ FEW045 SCT065 31/21 A2974 RMK AO2 SLP060 P0000 T03070209
Observed
May-24 @ 21:56 UTC
Wind
  • 170° at 15 KTS
Visibility
Flight Rules
VFR
Conditions
Drizzle
Cloud Levels
  • Few at 4,500' AGL
  • Scattered at 6,500' AGL
Temperature
31°C / 88°F
Dewpoint
21°C / 70°F
Humidity
55%
Altimeter
29.74" Hg
Pressure
1007.12 hPa
Current Rain
0.01"
Previous

2 hours ago

KEND 242056Z AUTO 16014KT 10SM DZ SCT047 BKN055 30/21 A2976 RMK AO2 DZE29DZB35 SLP067 P0000 60000 T02990210 57019
Observed
May-24 @ 20:56 UTC
Wind
  • 160° at 14 KTS
Visibility
Flight Rules
VFR
Conditions
Drizzle
Cloud Levels
  • Scattered at 4,700' AGL
  • Broken at 5,500' AGL
Temperature
30°C / 86°F
Dewpoint
21°C / 70°F
Humidity
59%
Altimeter
29.76" Hg
Pressure
1007.82 hPa
Current Rain
0.01"
Previous

3 hours ago

KEND 241956Z AUTO 15017KT 10SM DZ FEW200 30/21 A2977 RMK AO2 PK WND 18026/1857 SLP070 P0000 T03040206
Observed
May-24 @ 19:56 UTC
Wind
  • 150° at 17 KTS
Visibility
Flight Rules
VFR
Conditions
Drizzle
Cloud Levels
  • Few at 20,000' AGL
Temperature
30°C / 86°F
Dewpoint
21°C / 70°F
Humidity
59%
Altimeter
29.77" Hg
Pressure
1008.12 hPa
Current Rain
0.01"